Time;durP1;ratioP1;P1;durP2;ratioP2;P2;SDS_P1;SDS_P2;PMS_P1;PMS_P2;Temp;Humidity;BMP_temperature;BMP_pressure;BME280_temperature;BME280_humidity;BME280_pressure;Samples;Min_cycle;Max_cycle;Signal;HPM_P1;HPM_P2
2020/12/20 00:00:12;;;;;;;;;;;;;;;;;;2063645;28;44732;-65
2020/12/20 00:01:14;;;;;;;;;;;;;;;;;;2063667;28;45379;-65
2020/12/20 00:02:15;;;;;;;;;;;;;;;;;;2063332;28;45494;-65
2020/12/20 00:03:16;;;;;;;;;;;;;;;;;;2064341;28;44784;-65
2020/12/20 00:04:17;;;;;;;;;;;;;;;;;;2063951;28;46122;-65
2020/12/20 00:05:20;;;;;;;;;;;;;;;;;;2064292;28;46165;-64
2020/12/20 00:06:21;;;;;;;;;;;;;;;;;;2063810;28;45092;-64
2020/12/20 00:07:22;;;;;;;;;;;;;;;;;;2064255;28;44776;-64
2020/12/20 00:08:23;;;;;;;;;;;;;;;;;;2064191;28;46023;-64
2020/12/20 00:09:24;;;;;;;;;;;;;;;;;;2064064;28;44878;-65
2020/12/20 00:10:25;;;;;;;;;;;;;;;;;;2063771;28;42485;-65
2020/12/20 00:11:26;;;;;;;;;;;;;;;;;;2063776;28;44295;-65
2020/12/20 00:12:27;;;;;;;;;;;;;;;;;;2063308;28;46520;-65
2020/12/20 00:13:29;;;;;;;;;;;;;;;;;;2063578;28;44785;-65
2020/12/20 00:14:30;;;;;;;;;;;;;;;;;;2063530;28;44614;-65
2020/12/20 00:15:31;;;;;;;;;;;;;;;;;;2063647;28;46082;-65
2020/12/20 00:16:32;;;;;;;;;;;;;;;;;;2063744;28;46033;-65
2020/12/20 00:17:37;;;;;;;;;;;;;;;;;;2064242;28;44857;-63
2020/12/20 00:18:38;;;;;;;;;;;;;;;;;;2063606;28;44747;-64
2020/12/20 00:19:39;;;;;;;;;;;;;;;;;;2063375;28;44839;-64
2020/12/20 00:20:40;;;;;;;;;;;;;;;;;;2063673;28;46171;-64
2020/12/20 00:21:41;;;;;;;;;;;;;;;;;;2063670;28;42032;-64
2020/12/20 00:22:43;;;;;;;;;;;;;;;;;;2063916;28;44142;-65
2020/12/20 00:23:44;;;;;;;;;;;;;;;;;;2064234;28;45003;-64
2020/12/20 00:24:45;;;;;;;;;;;;;;;;;;2063424;28;44581;-65
2020/12/20 00:25:46;;;;;;;;;;;;;;;;;;2063623;28;40463;-64
2020/12/20 00:26:47;;;;;;;;;;;;;;;;;;2063176;28;43959;-65
2020/12/20 00:27:48;;;;;;;;;;;;;;;;;;2064237;28;41553;-65
2020/12/20 00:28:49;;;;;;;;;;;;;;;;;;2064038;28;44612;-65
2020/12/20 00:29:50;;;;;;;;;;;;;;;;;;2063993;28;43264;-65
2020/12/20 00:30:51;;;;;;;;;;;;;;;;;;2064121;28;44599;-64
2020/12/20 00:31:52;;;;;;;;;;;;;;;;;;2063526;28;43013;-64
2020/12/20 00:32:53;;;;;;;;;;;;;;;;;;2063378;28;45546;-64
2020/12/20 00:33:54;;;;;;;;;;;;;;;;;;2063444;28;43267;-64
2020/12/20 00:34:55;;;;;;;;;;;;;;;;;;2064133;28;43313;-65
2020/12/20 00:35:57;;;;;;;;;;;;;;;;;;2064045;28;41859;-64
2020/12/20 00:36:58;;;;;;;;;;;;;;;;;;2063306;28;44252;-64
2020/12/20 00:37:59;;;;;;;;;;;;;;;;;;2063462;28;43292;-64
2020/12/20 00:39:00;;;;;;;;;;;;;;;;;;2063290;28;44470;-64
2020/12/20 00:40:02;;;;;;;;;;;;;;;;;;2063214;28;42950;-64
2020/12/20 00:41:08;;;;;;;;;;;;;;;;;;2063394;28;44476;-64
2020/12/20 00:42:09;;;;;;;;;;;;;;;;;;2063672;28;43293;-65
2020/12/20 00:43:10;;;;;;;;;;;;;;;;;;2063907;28;46031;-66
2020/12/20 00:44:11;;;;;;;;;;;;;;;;;;2063934;28;44309;-66
2020/12/20 00:45:12;;;;;;;;;;;;;;;;;;2063991;28;45688;-65
2020/12/20 00:46:13;;;;;;;;;;;;;;;;;;2062610;28;44409;-65
2020/12/20 00:47:14;;;;;;;;;;;;;;;;;;2063257;28;44316;-65
2020/12/20 00:48:15;;;;;;;;;;;;;;;;;;2063318;28;45692;-65
2020/12/20 00:49:16;;;;;;;;;;;;;;;;;;2063784;28;44401;-65
2020/12/20 00:50:17;;;;;;;;;;;;;;;;;;2063241;28;44142;-65
2020/12/20 00:51:18;;;;;;;;;;;;;;;;;;2063399;28;44410;-65
2020/12/20 00:52:19;;;;;;;;;;;;;;;;;;2063256;28;42739;-65
2020/12/20 00:53:20;;;;;;;;;;;;;;;;;;2063810;28;44545;-65
2020/12/20 00:54:21;;;;;;;;;;;;;;;;;;2063194;28;45285;-65
2020/12/20 00:55:22;;;;;;;;;;;;;;;;;;2063418;28;42988;-65
2020/12/20 00:56:24;;;;;;;;;;;;;;;;;;2063134;28;43030;-64
2020/12/20 00:57:25;;;;;;;;;;;;;;;;;;2063973;28;44393;-65
2020/12/20 00:58:26;;;;;;;;;;;;;;;;;;2063006;28;44446;-65
2020/12/20 00:59:27;;;;;;;;;;;;;;;;;;2063120;28;45422;-65
2020/12/20 01:00:27;;;;;;;;;;;;;;;;;;2063008;28;45700;-65
2020/12/20 01:01:29;;;;;;;;;;;;;;;;;;2063348;28;45619;-65
2020/12/20 01:02:30;;;;;;;;;;;;;;;;;;2063841;28;44418;-65
2020/12/20 01:03:31;;;;;;;;;;;;;;;;;;2064182;28;45580;-64
2020/12/20 01:04:32;;;;;;;;;;;;;;;;;;2063757;28;46051;-64
2020/12/20 01:05:33;;;;;;;;;;;;;;;;;;2063894;28;44863;-64
2020/12/20 01:06:34;;;;;;;;;;;;;;;;;;2063434;28;45879;-63
2020/12/20 01:07:35;;;;;;;;;;;;;;;;;;2064026;28;43148;-63
2020/12/20 01:08:36;;;;;;;;;;;;;;;;;;2063447;28;42914;-63
2020/12/20 01:09:37;;;;;;;;;;;;;;;;;;2063054;28;44595;-63
2020/12/20 01:10:38;;;;;;;;;;;;;;;;;;2063843;28;44909;-63
2020/12/20 01:11:39;;;;;;;;;;;;;;;;;;2063889;28;44408;-63
2020/12/20 01:12:40;;;;;;;;;;;;;;;;;;2063086;28;46485;-64
2020/12/20 01:13:45;;;;;;;;;;;;;;;;;;2063001;28;45404;-63
2020/12/20 01:14:46;;;;;;;;;;;;;;;;;;2063817;28;43906;-64
2020/12/20 01:15:47;;;;;;;;;;;;;;;;;;2063850;28;44770;-63
2020/12/20 01:16:48;;;;;;;;;;;;;;;;;;2063067;28;44232;-64
2020/12/20 01:17:49;;;;;;;;;;;;;;;;;;2063453;28;44448;-63
2020/12/20 01:18:51;;;;;;;;;;;;;;;;;;2063521;28;46169;-64
2020/12/20 01:19:52;;;;;;;;;;;;;;;;;;2063325;28;44754;-63
2020/12/20 01:20:53;;;;;;;;;;;;;;;;;;2063612;28;44746;-64
2020/12/20 01:21:54;;;;;;;;;;;;;;;;;;2063320;28;44763;-66
2020/12/20 01:22:55;;;;;;;;;;;;;;;;;;2064184;28;44462;-65
2020/12/20 01:23:56;;;;;;;;;;;;;;;;;;2064064;28;46088;-66
2020/12/20 01:24:57;;;;;;;;;;;;;;;;;;2064193;28;46498;-66
2020/12/20 01:25:58;;;;;;;;;;;;;;;;;;2064458;28;44775;-66
2020/12/20 01:26:59;;;;;;;;;;;;;;;;;;2063950;28;41886;-66
2020/12/20 01:28:00;;;;;;;;;;;;;;;;;;2063950;28;44271;-66
2020/12/20 01:29:01;;;;;;;;;;;;;;;;;;2064003;28;42043;-66
2020/12/20 01:30:02;;;;;;;;;;;;;;;;;;2064221;28;43321;-66
2020/12/20 01:31:04;;;;;;;;;;;;;;;;;;2064110;28;43293;-67
2020/12/20 01:32:05;;;;;;;;;;;;;;;;;;2064159;28;43306;-67
2020/12/20 01:33:06;;;;;;;;;;;;;;;;;;2063340;28;44475;-66
2020/12/20 01:34:07;;;;;;;;;;;;;;;;;;2062892;28;44242;-67
2020/12/20 01:35:10;;;;;;;;;;;;;;;;;;2063860;28;42838;-66
2020/12/20 01:36:12;;;;;;;;;;;;;;;;;;2063573;28;44409;-67
2020/12/20 01:37:13;;;;;;;;;;;;;;;;;;2062998;28;44309;-68
2020/12/20 01:38:14;;;;;;;;;;;;;;;;;;2063015;28;44598;-67
2020/12/20 01:39:17;;;;;;;;;;;;;;;;;;2063593;28;41230;-67
2020/12/20 01:40:18;;;;;;;;;;;;;;;;;;2063552;28;44289;-66
2020/12/20 01:41:20;;;;;;;;;;;;;;;;;;2063672;28;43469;-66
2020/12/20 01:42:21;;;;;;;;;;;;;;;;;;2063426;28;44555;-66
2020/12/20 01:43:22;;;;;;;;;;;;;;;;;;2063107;28;41155;-66
2020/12/20 01:44:23;;;;;;;;;;;;;;;;;;2062691;28;44257;-67
2020/12/20 01:45:24;;;;;;;;;;;;;;;;;;2063615;28;44567;-67
2020/12/20 01:46:25;;;;;;;;;;;;;;;;;;2063286;28;44472;-65
2020/12/20 01:47:30;;;;;;;;;;;;;;;;;;2063977;28;44441;-65
2020/12/20 01:48:33;;;;;;;;;;;;;;;;;;2063442;28;44415;-66
2020/12/20 01:49:35;;;;;;;;;;;;;;;;;;2063318;28;47791;-66
2020/12/20 01:50:36;;;;;;;;;;;;;;;;;;2062835;28;43816;-65
2020/12/20 01:51:37;;;;;;;;;;;;;;;;;;2063052;28;44408;-65
2020/12/20 01:52:38;;;;;;;;;;;;;;;;;;2063497;28;44436;-67
2020/12/20 01:53:40;;;;;;;;;;;;;;;;;;2062962;28;45576;-66
2020/12/20 01:54:44;;;;;;;;;;;;;;;;;;2062663;28;42932;-66
2020/12/20 01:55:46;;;;;;;;;;;;;;;;;;2063681;28;42608;-67
2020/12/20 01:56:47;;;;;;;;;;;;;;;;;;2063180;28;45716;-66
2020/12/20 01:57:48;;;;;;;;;;;;;;;;;;2063059;28;44351;-65
2020/12/20 01:58:50;;;;;;;;;;;;;;;;;;2063931;28;44307;-64
2020/12/20 01:59:51;;;;;;;;;;;;;;;;;;2064128;28;44292;-64
2020/12/20 02:00:52;;;;;;;;;;;;;;;;;;2064134;28;44260;-64
2020/12/20 02:01:56;;;;;;;;;;;;;;;;;;2064337;28;44100;-64
2020/12/20 02:02:57;;;;;;;;;;;;;;;;;;2064129;28;45272;-65
2020/12/20 02:03:58;;;;;;;;;;;;;;;;;;2064930;28;44378;-65
2020/12/20 02:04:59;;;;;;;;;;;;;;;;;;2064611;28;44412;-65
2020/12/20 02:06:00;;;;;;;;;;;;;;;;;;2064807;28;45787;-65
2020/12/20 02:07:01;;;;;;;;;;;;;;;;;;2064318;28;44225;-65
2020/12/20 02:08:02;;;;;;;;;;;;;;;;;;2064331;28;44282;-64
2020/12/20 02:09:03;;;;;;;;;;;;;;;;;;2064100;28;45704;-65
2020/12/20 02:10:05;;;;;;;;;;;;;;;;;;2064288;28;44842;-65
2020/12/20 02:11:06;;;;;;;;;;;;;;;;;;2063802;28;48339;-65
2020/12/20 02:12:07;;;;;;;;;;;;;;;;;;2064203;28;46033;-65
2020/12/20 02:13:08;;;;;;;;;;;;;;;;;;2063968;28;44538;-65
2020/12/20 02:14:09;;;;;;;;;;;;;;;;;;2064795;28;44930;-65
2020/12/20 02:15:13;;;;;;;;;;;;;;;;;;2064550;28;46031;-65
2020/12/20 02:16:15;;;;;;;;;;;;;;;;;;2064859;28;44863;-65
2020/12/20 02:17:16;;;;;;;;;;;;;;;;;;2064512;28;46227;-64
2020/12/20 02:18:17;;;;;;;;;;;;;;;;;;2064821;28;46264;-64
2020/12/20 02:19:21;;;;;;;;;;;;;;;;;;2064330;28;45959;-64
2020/12/20 02:20:23;;;;;;;;;;;;;;;;;;2064847;28;47305;-64
2020/12/20 02:21:25;;;;;;;;;;;;;;;;;;2064979;28;45917;-65
2020/12/20 02:22:26;;;;;;;;;;;;;;;;;;2064866;28;44470;-66
2020/12/20 02:23:27;;;;;;;;;;;;;;;;;;2064874;28;44823;-65
2020/12/20 02:24:28;;;;;;;;;;;;;;;;;;2064280;28;44914;-65
2020/12/20 02:25:31;;;;;;;;;;;;;;;;;;2064141;28;46042;-65
2020/12/20 02:26:32;;;;;;;;;;;;;;;;;;2064076;28;44113;-65
2020/12/20 02:27:33;;;;;;;;;;;;;;;;;;2064318;28;46775;-65
2020/12/20 02:28:35;;;;;;;;;;;;;;;;;;2064701;28;44887;-65
2020/12/20 02:29:36;;;;;;;;;;;;;;;;;;2064009;28;46051;-66
2020/12/20 02:30:37;;;;;;;;;;;;;;;;;;2064495;28;43563;-65
2020/12/20 02:31:38;;;;;;;;;;;;;;;;;;2065283;28;47171;-66
2020/12/20 02:32:39;;;;;;;;;;;;;;;;;;2064199;28;43311;-66
2020/12/20 02:33:40;;;;;;;;;;;;;;;;;;2064098;28;44444;-65
2020/12/20 02:34:41;;;;;;;;;;;;;;;;;;2064751;28;43194;-65
2020/12/20 02:35:43;;;;;;;;;;;;;;;;;;2065164;28;43949;-64
2020/12/20 02:36:45;;;;;;;;;;;;;;;;;;2065225;28;43521;-64
2020/12/20 02:37:46;;;;;;;;;;;;;;;;;;2064463;28;43330;-64
2020/12/20 02:38:47;;;;;;;;;;;;;;;;;;2063884;28;44566;-65
2020/12/20 02:39:48;;;;;;;;;;;;;;;;;;2064487;28;43151;-66
2020/12/20 02:40:49;;;;;;;;;;;;;;;;;;2064546;28;44454;-65
2020/12/20 02:41:53;;;;;;;;;;;;;;;;;;2063831;28;44841;-65
2020/12/20 02:42:54;;;;;;;;;;;;;;;;;;2064018;28;43155;-65
2020/12/20 02:43:55;;;;;;;;;;;;;;;;;;2064087;28;44168;-65
2020/12/20 02:44:56;;;;;;;;;;;;;;;;;;2063664;28;43164;-65
2020/12/20 02:45:57;;;;;;;;;;;;;;;;;;2064589;28;45510;-65
2020/12/20 02:46:59;;;;;;;;;;;;;;;;;;2064281;28;42908;-65
2020/12/20 02:48:00;;;;;;;;;;;;;;;;;;2064720;28;43300;-65
2020/12/20 02:49:07;;;;;;;;;;;;;;;;;;2064278;28;42579;-66
2020/12/20 02:50:08;;;;;;;;;;;;;;;;;;2064158;28;43283;-65
2020/12/20 02:51:09;;;;;;;;;;;;;;;;;;2064006;28;43185;-66
2020/12/20 02:52:10;;;;;;;;;;;;;;;;;;2064105;28;44589;-65
2020/12/20 02:53:11;;;;;;;;;;;;;;;;;;2064065;28;43251;-64
2020/12/20 02:54:12;;;;;;;;;;;;;;;;;;2063993;28;45930;-64
2020/12/20 02:55:13;;;;;;;;;;;;;;;;;;2063874;28;45190;-64
2020/12/20 02:56:14;;;;;;;;;;;;;;;;;;2064556;28;44275;-65
2020/12/20 02:57:15;;;;;;;;;;;;;;;;;;2063775;28;44313;-64
2020/12/20 02:58:16;;;;;;;;;;;;;;;;;;2064193;28;44313;-64
2020/12/20 02:59:18;;;;;;;;;;;;;;;;;;2064186;28;44603;-64
2020/12/20 03:00:19;;;;;;;;;;;;;;;;;;2064693;28;44262;-64
2020/12/20 03:01:21;;;;;;;;;;;;;;;;;;2064317;28;43542;-65
2020/12/20 03:02:22;;;;;;;;;;;;;;;;;;2064023;28;44402;-64
2020/12/20 03:03:23;;;;;;;;;;;;;;;;;;2055886;28;44068;-65
2020/12/20 03:04:24;;;;;;;;;;;;;;;;;;2064144;28;43751;-67
2020/12/20 03:05:25;;;;;;;;;;;;;;;;;;2063866;28;45403;-66
2020/12/20 03:06:26;;;;;;;;;;;;;;;;;;2063238;28;43883;-66
2020/12/20 03:07:27;;;;;;;;;;;;;;;;;;2063649;28;42660;-67
2020/12/20 03:08:28;;;;;;;;;;;;;;;;;;2072122;28;45421;-66
2020/12/20 03:09:29;;;;;;;;;;;;;;;;;;2063034;28;44725;-65
2020/12/20 03:10:30;;;;;;;;;;;;;;;;;;2064077;28;44898;-65
2020/12/20 03:11:31;;;;;;;;;;;;;;;;;;2064079;28;43983;-66
2020/12/20 03:12:32;;;;;;;;;;;;;;;;;;2064003;28;44018;-67
2020/12/20 03:13:34;;;;;;;;;;;;;;;;;;2063640;28;45711;-67
2020/12/20 03:14:36;;;;;;;;;;;;;;;;;;2064267;28;45295;-66
2020/12/20 03:15:41;;;;;;;;;;;;;;;;;;2063607;28;45886;-66
2020/12/20 03:16:42;;;;;;;;;;;;;;;;;;2063542;28;45841;-65
2020/12/20 03:17:43;;;;;;;;;;;;;;;;;;2063765;28;45759;-65
2020/12/20 03:18:44;;;;;;;;;;;;;;;;;;2063890;28;44758;-66
2020/12/20 03:19:45;;;;;;;;;;;;;;;;;;2064491;28;45850;-65
2020/12/20 03:20:46;;;;;;;;;;;;;;;;;;2064508;28;44628;-65
2020/12/20 03:21:47;;;;;;;;;;;;;;;;;;2063822;28;44945;-66
2020/12/20 03:22:48;;;;;;;;;;;;;;;;;;2063883;28;44742;-65
2020/12/20 03:23:49;;;;;;;;;;;;;;;;;;2064604;28;44534;-65
2020/12/20 03:24:50;;;;;;;;;;;;;;;;;;2063791;28;46393;-65
2020/12/20 03:25:51;;;;;;;;;;;;;;;;;;2063879;28;44834;-65
2020/12/20 03:26:52;;;;;;;;;;;;;;;;;;2063362;28;45973;-65
2020/12/20 03:27:53;;;;;;;;;;;;;;;;;;2063839;28;44895;-65
2020/12/20 03:28:54;;;;;;;;;;;;;;;;;;2063744;28;44728;-65
2020/12/20 03:29:55;;;;;;;;;;;;;;;;;;2064304;28;44721;-66
2020/12/20 03:30:56;;;;;;;;;;;;;;;;;;2064349;28;46150;-66
2020/12/20 03:31:57;;;;;;;;;;;;;;;;;;2063874;28;46019;-66
2020/12/20 03:32:58;;;;;;;;;;;;;;;;;;2063624;28;44657;-66
2020/12/20 03:33:59;;;;;;;;;;;;;;;;;;2064448;28;43211;-64
2020/12/20 03:35:00;;;;;;;;;;;;;;;;;;2064126;28;44917;-63
2020/12/20 03:36:01;;;;;;;;;;;;;;;;;;2064465;28;46101;-63
2020/12/20 03:37:02;;;;;;;;;;;;;;;;;;2063654;28;44909;-63
2020/12/20 03:38:03;;;;;;;;;;;;;;;;;;2063906;28;43608;-63
2020/12/20 03:39:04;;;;;;;;;;;;;;;;;;2063260;28;44290;-63
2020/12/20 03:40:05;;;;;;;;;;;;;;;;;;2063906;28;43247;-64
2020/12/20 03:41:06;;;;;;;;;;;;;;;;;;2063634;28;44607;-64
2020/12/20 03:42:07;;;;;;;;;;;;;;;;;;2063556;28;44470;-64
2020/12/20 03:43:08;;;;;;;;;;;;;;;;;;2064148;28;42854;-64
2020/12/20 03:44:09;;;;;;;;;;;;;;;;;;2064504;28;44629;-64
2020/12/20 03:45:10;;;;;;;;;;;;;;;;;;2063854;28;43070;-63
2020/12/20 03:46:11;;;;;;;;;;;;;;;;;;2064132;28;44683;-64
2020/12/20 03:47:12;;;;;;;;;;;;;;;;;;2063476;28;44123;-64
2020/12/20 03:48:13;;;;;;;;;;;;;;;;;;2064416;28;42865;-64
2020/12/20 03:49:14;;;;;;;;;;;;;;;;;;2064088;28;44445;-64
2020/12/20 03:50:16;;;;;;;;;;;;;;;;;;2064414;28;43194;-64
2020/12/20 03:51:17;;;;;;;;;;;;;;;;;;2064030;28;43828;-64
2020/12/20 03:52:21;;;;;;;;;;;;;;;;;;2064368;28;44254;-63
2020/12/20 03:53:22;;;;;;;;;;;;;;;;;;2064094;28;43176;-64
2020/12/20 03:54:24;;;;;;;;;;;;;;;;;;2063726;28;43232;-64
2020/12/20 03:55:26;;;;;;;;;;;;;;;;;;2063642;28;44302;-64
2020/12/20 03:56:27;;;;;;;;;;;;;;;;;;2064142;28;43261;-64
2020/12/20 03:57:28;;;;;;;;;;;;;;;;;;2063140;28;45457;-65
2020/12/20 03:58:29;;;;;;;;;;;;;;;;;;2063857;28;43301;-64
2020/12/20 03:59:30;;;;;;;;;;;;;;;;;;2063846;28;44320;-64
2020/12/20 04:00:31;;;;;;;;;;;;;;;;;;2064192;28;45593;-65
2020/12/20 04:01:32;;;;;;;;;;;;;;;;;;2064066;28;45655;-66
2020/12/20 04:02:33;;;;;;;;;;;;;;;;;;2064254;28;45580;-66
2020/12/20 04:03:34;;;;;;;;;;;;;;;;;;2064072;28;43997;-65
2020/12/20 04:04:36;;;;;;;;;;;;;;;;;;2064065;28;45722;-64
2020/12/20 04:05:37;;;;;;;;;;;;;;;;;;2063939;28;44383;-66
2020/12/20 04:06:38;;;;;;;;;;;;;;;;;;2064372;28;44286;-66
2020/12/20 04:07:41;;;;;;;;;;;;;;;;;;2064032;28;45541;-66
2020/12/20 04:08:42;;;;;;;;;;;;;;;;;;2064257;28;45715;-67
2020/12/20 04:09:43;;;;;;;;;;;;;;;;;;2063427;28;44146;-66
2020/12/20 04:10:44;;;;;;;;;;;;;;;;;;2063755;28;42633;-65
2020/12/20 04:11:45;;;;;;;;;;;;;;;;;;2063746;28;44139;-66
2020/12/20 04:12:46;;;;;;;;;;;;;;;;;;2063593;28;44485;-66
2020/12/20 04:13:47;;;;;;;;;;;;;;;;;;2063657;28;42857;-66
2020/12/20 04:14:48;;;;;;;;;;;;;;;;;;2063514;28;45782;-66
2020/12/20 04:15:49;;;;;;;;;;;;;;;;;;2063714;28;44407;-66
2020/12/20 04:16:50;;;;;;;;;;;;;;;;;;2063438;28;44441;-67
2020/12/20 04:17:51;;;;;;;;;;;;;;;;;;2064083;28;44405;-66
2020/12/20 04:18:52;;;;;;;;;;;;;;;;;;2064093;28;44299;-67
2020/12/20 04:20:03;;;;;;;;;;;;;;;;;;2064533;28;45411;-66
2020/12/20 04:21:04;;;;;;;;;;;;;;;;;;2063023;28;44981;-66
2020/12/20 04:22:05;;;;;;;;;;;;;;;;;;2063657;28;44436;-66
2020/12/20 04:23:06;;;;;;;;;;;;;;;;;;2063438;28;44879;-65
2020/12/20 04:24:07;;;;;;;;;;;;;;;;;;2063576;28;46029;-65
2020/12/20 04:25:08;;;;;;;;;;;;;;;;;;2063539;28;46072;-66
2020/12/20 04:26:09;;;;;;;;;;;;;;;;;;2064256;28;44860;-65
2020/12/20 04:27:10;;;;;;;;;;;;;;;;;;2063842;28;44856;-65
2020/12/20 04:28:11;;;;;;;;;;;;;;;;;;2064081;28;44621;-65
2020/12/20 04:29:12;;;;;;;;;;;;;;;;;;2063914;28;44845;-65
2020/12/20 04:30:13;;;;;;;;;;;;;;;;;;2064269;28;41443;-66
2020/12/20 04:31:14;;;;;;;;;;;;;;;;;;2064224;28;44893;-65
2020/12/20 04:32:17;;;;;;;;;;;;;;;;;;2064354;28;43282;-65
2020/12/20 04:33:18;;;;;;;;;;;;;;;;;;2063981;28;44746;-65
2020/12/20 04:34:19;;;;;;;;;;;;;;;;;;2064250;28;43418;-65
2020/12/20 04:35:20;;;;;;;;;;;;;;;;;;2063857;28;47134;-65
2020/12/20 04:36:21;;;;;;;;;;;;;;;;;;2056175;28;44224;-65
2020/12/20 04:37:22;;;;;;;;;;;;;;;;;;2055922;28;44562;-65
2020/12/20 04:38:23;;;;;;;;;;;;;;;;;;2056044;28;44782;-65
2020/12/20 04:39:24;;;;;;;;;;;;;;;;;;2055170;28;45814;-65
2020/12/20 04:40:25;;;;;;;;;;;;;;;;;;2055641;28;46152;-65
2020/12/20 04:41:26;;;;;;;;;;;;;;;;;;2055800;28;44873;-66
2020/12/20 04:42:27;;;;;;;;;;;;;;;;;;2056415;28;46153;-65
2020/12/20 04:43:29;;;;;;;;;;;;;;;;;;2055726;28;43203;-65
2020/12/20 04:44:29;;;;;;;;;;;;;;;;;;2056117;28;44204;-64
2020/12/20 04:45:31;;;;;;;;;;;;;;;;;;2055941;28;41640;-64
2020/12/20 04:46:32;;;;;;;;;;;;;;;;;;2055835;28;44482;-65
2020/12/20 04:47:34;;;;;;;;;;;;;;;;;;2055246;28;43658;-64
2020/12/20 04:48:36;;;;;;;;;;;;;;;;;;2055357;28;45200;-65
2020/12/20 04:49:38;;;;;;;;;;;;;;;;;;2055659;28;43939;-65
2020/12/20 04:50:40;;;;;;;;;;;;;;;;;;2056049;28;44950;-65
2020/12/20 04:51:42;;;;;;;;;;;;;;;;;;2055757;28;44585;-65
2020/12/20 04:52:46;;;;;;;;;;;;;;;;;;2056052;28;41526;-65
2020/12/20 04:53:47;;;;;;;;;;;;;;;;;;2055822;28;44392;-64
2020/12/20 04:54:49;;;;;;;;;;;;;;;;;;2055873;28;44575;-63
2020/12/20 04:55:51;;;;;;;;;;;;;;;;;;2055894;28;43291;-63
2020/12/20 04:56:53;;;;;;;;;;;;;;;;;;2055807;28;43016;-64
2020/12/20 04:57:54;;;;;;;;;;;;;;;;;;2055670;28;42988;-63
2020/12/20 04:58:56;;;;;;;;;;;;;;;;;;2055866;28;44238;-63
2020/12/20 04:59:58;;;;;;;;;;;;;;;;;;2055763;28;43154;-63
2020/12/20 05:00:59;;;;;;;;;;;;;;;;;;2056070;28;44167;-63
2020/12/20 05:02:00;;;;;;;;;;;;;;;;;;2055837;28;44265;-63
2020/12/20 05:03:01;;;;;;;;;;;;;;;;;;2055950;28;44609;-64
2020/12/20 05:04:03;;;;;;;;;;;;;;;;;;2055996;28;44262;-64
2020/12/20 05:05:04;;;;;;;;;;;;;;;;;;2055983;28;44376;-64
2020/12/20 05:06:05;;;;;;;;;;;;;;;;;;2061599;28;45648;-65
2020/12/20 05:07:07;;;;;;;;;;;;;;;;;;2063109;28;45567;-65
2020/12/20 05:08:08;;;;;;;;;;;;;;;;;;2063200;28;43911;-63
2020/12/20 05:09:10;;;;;;;;;;;;;;;;;;2063351;28;43030;-63
2020/12/20 05:10:10;;;;;;;;;;;;;;;;;;2063906;28;44415;-63
2020/12/20 05:11:30;;;;;;;;;;;;;;;;;;2063941;28;45596;-63
2020/12/20 05:12:33;;;;;;;;;;;;;;;;;;2063326;28;45770;-65
2020/12/20 05:13:37;;;;;;;;;;;;;;;;;;2063587;28;44360;-65
2020/12/20 05:14:38;;;;;;;;;;;;;;;;;;2063065;28;44102;-64
2020/12/20 05:15:39;;;;;;;;;;;;;;;;;;2063396;28;44292;-64
2020/12/20 05:16:41;;;;;;;;;;;;;;;;;;2062857;28;44090;-65
2020/12/20 05:17:42;;;;;;;;;;;;;;;;;;2063469;28;44285;-64
2020/12/20 05:18:47;;;;;;;;;;;;;;;;;;2063870;28;45376;-64
2020/12/20 05:19:48;;;;;;;;;;;;;;;;;;2063994;28;44253;-64
2020/12/20 05:20:51;;;;;;;;;;;;;;;;;;2063958;28;44418;-65
2020/12/20 05:21:52;;;;;;;;;;;;;;;;;;2064334;28;45694;-65
2020/12/20 05:22:54;;;;;;;;;;;;;;;;;;2063930;28;45712;-65
2020/12/20 05:23:55;;;;;;;;;;;;;;;;;;2064242;28;44277;-64
2020/12/20 05:24:56;;;;;;;;;;;;;;;;;;2063800;28;42538;-65
2020/12/20 05:26:04;;;;;;;;;;;;;;;;;;2063928;28;42596;-65
2020/12/20 05:27:05;;;;;;;;;;;;;;;;;;2056033;28;44424;-65
2020/12/20 05:28:18;;;;;;;;;;;;;;;;;;2055625;28;47130;-65
2020/12/20 05:29:26;;;;;;;;;;;;;;;;;;2062758;28;44931;-65
2020/12/20 05:30:27;;;;;;;;;;;;;;;;;;2063730;28;45944;-65
2020/12/20 05:31:30;;;;;;;;;;;;;;;;;;2063908;28;43476;-66
2020/12/20 05:32:31;;;;;;;;;;;;;;;;;;2063955;28;43554;-66
2020/12/20 05:33:32;;;;;;;;;;;;;;;;;;2064230;28;46004;-65
2020/12/20 05:34:34;;;;;;;;;;;;;;;;;;2065029;28;45863;-65
2020/12/20 05:35:35;;;;;;;;;;;;;;;;;;2064865;28;44758;-65
2020/12/20 05:36:36;;;;;;;;;;;;;;;;;;2064289;28;46155;-66
2020/12/20 05:37:38;;;;;;;;;;;;;;;;;;2064173;28;44875;-65
2020/12/20 05:38:39;;;;;;;;;;;;;;;;;;2064525;28;45830;-65
2020/12/20 05:39:40;;;;;;;;;;;;;;;;;;2064116;28;43916;-66
2020/12/20 05:40:41;;;;;;;;;;;;;;;;;;2064303;28;44839;-66
2020/12/20 05:41:42;;;;;;;;;;;;;;;;;;2064032;28;44762;-66
2020/12/20 05:43:14;;;;;;;;;;;;;;;;;;2064477;28;44832;-66
2020/12/20 05:44:16;;;;;;;;;;;;;;;;;;2080470;28;44875;-65
2020/12/20 05:45:18;;;;;;;;;;;;;;;;;;2064991;28;44760;-66
2020/12/20 05:46:25;;;;;;;;;;;;;;;;;;2064772;28;43465;-66
2020/12/20 05:47:26;;;;;;;;;;;;;;;;;;2064948;28;46561;-65
2020/12/20 05:48:30;;;;;;;;;;;;;;;;;;2064984;28;42976;-66
2020/12/20 05:49:37;;;;;;;;;;;;;;;;;;2064966;28;44855;-65
2020/12/20 05:50:38;;;;;;;;;;;;;;;;;;2065009;28;42548;-65
2020/12/20 05:51:39;;;;;;;;;;;;;;;;;;2064162;28;45445;-65
2020/12/20 05:52:40;;;;;;;;;;;;;;;;;;2064279;28;44346;-64
2020/12/20 05:53:41;;;;;;;;;;;;;;;;;;2064361;28;42888;-65
2020/12/20 05:54:42;;;;;;;;;;;;;;;;;;2064155;28;44329;-65
2020/12/20 05:55:43;;;;;;;;;;;;;;;;;;2064308;28;43279;-66
2020/12/20 05:56:46;;;;;;;;;;;;;;;;;;2064721;28;44578;-65
2020/12/20 05:57:47;;;;;;;;;;;;;;;;;;2064876;28;44531;-65
2020/12/20 05:58:51;;;;;;;;;;;;;;;;;;2064816;28;43351;-65
2020/12/20 05:59:52;;;;;;;;;;;;;;;;;;2064619;28;42560;-65
2020/12/20 06:00:55;;;;;;;;;;;;;;;;;;2064840;28;43281;-63
2020/12/20 06:01:56;;;;;;;;;;;;;;;;;;2064779;28;44433;-64
2020/12/20 06:02:57;;;;;;;;;;;;;;;;;;2064629;28;41722;-64
2020/12/20 06:04:01;;;;;;;;;;;;;;;;;;2064903;28;42385;-63
2020/12/20 06:05:02;;;;;;;;;;;;;;;;;;2064199;28;43393;-63
2020/12/20 06:06:05;;;;;;;;;;;;;;;;;;2064208;28;43193;-63
2020/12/20 06:07:07;;;;;;;;;;;;;;;;;;2064533;28;43030;-63
2020/12/20 06:08:10;;;;;;;;;;;;;;;;;;2064812;28;43265;-66
2020/12/20 06:09:12;;;;;;;;;;;;;;;;;;2063881;28;42840;-64
2020/12/20 06:10:15;;;;;;;;;;;;;;;;;;2064324;28;44596;-65
2020/12/20 06:11:23;;;;;;;;;;;;;;;;;;2064458;28;44109;-65
2020/12/20 06:12:26;;;;;;;;;;;;;;;;;;2064241;28;45440;-64
2020/12/20 06:13:27;;;;;;;;;;;;;;;;;;2064756;28;45601;-64
2020/12/20 06:14:28;;;;;;;;;;;;;;;;;;2064755;28;44336;-65
2020/12/20 06:15:31;;;;;;;;;;;;;;;;;;2064502;28;44307;-64
2020/12/20 06:16:33;;;;;;;;;;;;;;;;;;2064534;28;45549;-65
2020/12/20 06:17:42;;;;;;;;;;;;;;;;;;2064686;28;44380;-64
2020/12/20 06:18:50;;;;;;;;;;;;;;;;;;2064890;28;43922;-64
2020/12/20 06:19:52;;;;;;;;;;;;;;;;;;2064638;28;44304;-65
2020/12/20 06:20:57;;;;;;;;;;;;;;;;;;2064267;28;44405;-64
2020/12/20 06:21:59;;;;;;;;;;;;;;;;;;2064323;28;44081;-65
2020/12/20 06:23:00;;;;;;;;;;;;;;;;;;2064128;28;44115;-65
2020/12/20 06:24:02;;;;;;;;;;;;;;;;;;2064323;28;45716;-64
2020/12/20 06:25:06;;;;;;;;;;;;;;;;;;2064309;28;42821;-64
2020/12/20 06:26:16;;;;;;;;;;;;;;;;;;2064018;28;45382;-65
2020/12/20 06:27:18;;;;;;;;;;;;;;;;;;2064480;28;45370;-65
2020/12/20 06:28:23;;;;;;;;;;;;;;;;;;2064870;28;45210;-65
2020/12/20 06:29:24;;;;;;;;;;;;;;;;;;2063771;28;44382;-65
2020/12/20 06:30:25;;;;;;;;;;;;;;;;;;2064417;28;45676;-65
2020/12/20 06:31:27;;;;;;;;;;;;;;;;;;2064170;28;42687;-65
2020/12/20 06:32:38;;;;;;;;;;;;;;;;;;2064837;28;45786;-65
2020/12/20 06:33:45;;;;;;;;;;;;;;;;;;2064130;28;44252;-64
2020/12/20 06:34:46;;;;;;;;;;;;;;;;;;2064226;28;46041;-64
2020/12/20 06:35:50;;;;;;;;;;;;;;;;;;2063884;28;43281;-64
2020/12/20 06:36:51;;;;;;;;;;;;;;;;;;2064107;28;46070;-64
2020/12/20 06:37:52;;;;;;;;;;;;;;;;;;2064606;28;43538;-64
2020/12/20 06:38:54;;;;;;;;;;;;;;;;;;2064758;28;46192;-64
2020/12/20 06:39:55;;;;;;;;;;;;;;;;;;2064451;28;45782;-64
2020/12/20 06:40:56;;;;;;;;;;;;;;;;;;2064781;28;45875;-64
2020/12/20 06:41:57;;;;;;;;;;;;;;;;;;2064308;28;43407;-64
2020/12/20 06:42:58;;;;;;;;;;;;;;;;;;2064198;28;44839;-64
2020/12/20 06:43:59;;;;;;;;;;;;;;;;;;2063040;28;44871;-64
2020/12/20 06:45:20;;;;;;;;;;;;;;;;;;2064876;28;43428;-65
2020/12/20 06:46:37;;;;;;;;;;;;;;;;;;2064434;28;43255;-65
2020/12/20 06:47:48;;;;;;;;;;;;;;;;;;2064831;28;44874;-66
2020/12/20 06:48:49;;;;;;;;;;;;;;;;;;2063784;28;44862;-65
2020/12/20 06:49:51;;;;;;;;;;;;;;;;;;2063799;28;44883;-66
2020/12/20 06:50:52;;;;;;;;;;;;;;;;;;2063966;28;46214;-66
2020/12/20 06:52:13;;;;;;;;;;;;;;;;;;2064083;28;46137;-64
2020/12/20 06:53:18;;;;;;;;;;;;;;;;;;2064530;28;43363;-64
2020/12/20 06:54:23;;;;;;;;;;;;;;;;;;2064540;28;44616;-64
2020/12/20 06:55:24;;;;;;;;;;;;;;;;;;2064426;28;46037;-64
2020/12/20 06:56:25;;;;;;;;;;;;;;;;;;2064493;28;44652;-65
2020/12/20 06:57:26;;;;;;;;;;;;;;;;;;2065008;28;43399;-64
2020/12/20 06:58:33;;;;;;;;;;;;;;;;;;2064015;28;42985;-65
2020/12/20 06:59:43;;;;;;;;;;;;;;;;;;2063824;28;44343;-65
2020/12/20 07:00:44;;;;;;;;;;;;;;;;;;2064496;28;43293;-65
2020/12/20 07:01:45;;;;;;;;;;;;;;;;;;2064655;28;43264;-65
2020/12/20 07:02:47;;;;;;;;;;;;;;;;;;2064505;28;44569;-65